Terminal Aerodrome Forecast
Issued by NWS

Home | Current Version | Previous Version | Text Only | Print | Product List | Glossary On
Versions: 1 2 3 4 5 6 7 8 9 10 11 12 13 14 15 16 17 18 19 20 21 22 23 24 25 26
000
FTUS44 KBMX 291132
TAFTCL
TAF
KTCL 291132Z 2912/3012 10005KT P6SM OVC007
      TEMPO 2912/2914 5SM BR SCT006 BKN012
     FM291400 13004KT P6SM BKN015
     FM291500 16004KT P6SM BKN250
     FM291700 16005KT P6SM VCTS BKN050CB
     FM300200 15002KT P6SM BKN100
      TEMPO 3010/3012 5SM BR=

USA.gov is the U.S. government's official web portal to all federal, state and local government web resources and services.